Time;durP1;ratioP1;P1;durP2;ratioP2;P2;SDS_P1;SDS_P2;PMS_P1;PMS_P2;Temp;Humidity;BMP_temperature;BMP_pressure;BME280_temperature;BME280_humidity;BME280_pressure;Samples;Min_cycle;Max_cycle;Signal;HPM_P1;HPM_P2
2021/11/11 00:00:14;;;;;;;20.63;12.03;;;2.80;99.90;;;;;;5051737;28;20506;-62
2021/11/11 00:02:41;;;;;;;19.40;12.20;;;2.80;99.90;;;;;;5055328;28;20452;-62
2021/11/11 00:05:09;;;;;;;18.87;11.63;;;2.80;99.90;;;;;;5055087;28;20448;-63
2021/11/11 00:07:36;;;;;;;20.80;12.33;;;2.80;99.90;;;;;;5055412;28;20440;-62
2021/11/11 00:10:04;;;;;;;20.33;12.43;;;2.80;99.90;;;;;;5055507;28;20498;-62
2021/11/11 00:12:31;;;;;;;21.57;13.07;;;2.70;99.90;;;;;;5055242;28;20452;-62
2021/11/11 00:14:58;;;;;;;19.07;11.23;;;2.70;99.90;;;;;;5054871;28;20459;-62
2021/11/11 00:17:26;;;;;;;23.27;12.33;;;2.70;99.90;;;;;;5054981;28;20479;-62
2021/11/11 00:19:53;;;;;;;20.43;13.37;;;2.70;99.90;;;;;;5054990;28;20543;-62
2021/11/11 00:22:20;;;;;;;25.20;14.00;;;2.60;99.90;;;;;;5055289;28;20486;-62
2021/11/11 00:24:46;;;;;;;22.77;13.43;;;2.50;99.90;;;;;;5054716;28;20476;-62
2021/11/11 00:27:13;;;;;;;25.67;14.10;;;2.50;99.90;;;;;;5055140;28;20443;-62
2021/11/11 00:29:40;;;;;;;23.80;14.00;;;2.50;99.90;;;;;;5054947;28;20494;-62
2021/11/11 00:32:08;;;;;;;24.17;13.63;;;2.60;99.90;;;;;;5054851;28;20975;-62
2021/11/11 00:34:36;;;;;;;23.73;13.87;;;2.70;99.90;;;;;;5054251;28;20468;-62
2021/11/11 00:37:03;;;;;;;23.73;12.67;;;2.70;99.90;;;;;;5054928;28;20454;-62
2021/11/11 00:39:30;;;;;;;21.30;13.30;;;2.70;99.90;;;;;;5054845;28;20940;-62
2021/11/11 00:41:56;;;;;;;23.93;13.50;;;2.70;99.90;;;;;;5054582;28;20937;-62
2021/11/11 00:44:23;;;;;;;31.27;14.83;;;2.60;99.90;;;;;;5054564;28;20464;-62
2021/11/11 00:46:50;;;;;;;24.40;15.13;;;2.40;99.90;;;;;;5054075;28;20944;-62
2021/11/11 00:49:17;;;;;;;24.67;14.53;;;2.40;99.90;;;;;;5055107;28;20865;-62
2021/11/11 00:51:45;;;;;;;28.50;15.37;;;2.40;99.90;;;;;;5054651;28;20456;-61
2021/11/11 00:54:12;;;;;;;29.70;15.23;;;2.40;99.90;;;;;;5054603;28;20883;-62
2021/11/11 00:56:39;;;;;;;25.57;14.63;;;2.40;99.90;;;;;;5054241;28;20547;-62
2021/11/11 00:59:06;;;;;;;28.47;14.77;;;2.40;99.90;;;;;;5054258;28;20480;-61
2021/11/11 01:01:34;;;;;;;29.10;14.27;;;2.40;99.90;;;;;;5054268;28;20448;-62
2021/11/11 01:04:00;;;;;;;24.73;14.37;;;2.40;99.90;;;;;;5054535;28;20468;-61
2021/11/11 01:06:28;;;;;;;26.10;14.57;;;2.40;99.90;;;;;;5054695;28;20452;-62
2021/11/11 01:08:56;;;;;;;28.40;15.77;;;2.40;99.90;;;;;;5054294;28;20527;-62
2021/11/11 01:11:23;;;;;;;28.63;14.67;;;2.40;99.90;;;;;;5054166;28;20497;-62
2021/11/11 01:13:51;;;;;;;25.47;14.30;;;2.40;99.90;;;;;;5053050;28;20480;-62
2021/11/11 01:16:18;;;;;;;23.57;14.00;;;2.40;99.90;;;;;;5053706;28;20486;-62
2021/11/11 01:18:45;;;;;;;26.27;14.97;;;2.40;99.90;;;;;;5054192;28;20483;-62
2021/11/11 01:21:12;;;;;;;24.90;13.77;;;2.40;99.90;;;;;;5054050;28;20448;-62
2021/11/11 01:23:39;;;;;;;28.90;16.43;;;2.40;99.90;;;;;;5053970;28;20498;-62
2021/11/11 01:26:07;;;;;;;24.60;15.47;;;2.40;99.90;;;;;;5053525;28;20487;-62
2021/11/11 01:28:34;;;;;;;30.07;16.30;;;2.40;99.90;;;;;;5053722;28;20547;-62
2021/11/11 01:31:01;;;;;;;26.63;15.67;;;2.40;99.90;;;;;;5053890;28;20517;-62
2021/11/11 01:33:28;;;;;;;25.03;14.50;;;2.40;99.90;;;;;;5054209;28;20469;-61
2021/11/11 01:35:55;;;;;;;30.57;16.83;;;2.40;99.90;;;;;;5053645;28;20488;-60
2021/11/11 01:38:23;;;;;;;26.93;16.63;;;2.40;99.90;;;;;;5053692;28;20526;-62
2021/11/11 01:40:51;;;;;;;29.03;16.63;;;2.40;99.90;;;;;;5053692;28;20454;-62
2021/11/11 01:43:19;;;;;;;31.13;17.07;;;2.40;99.90;;;;;;5053324;28;20472;-61
2021/11/11 01:45:46;;;;;;;34.50;18.00;;;2.30;99.90;;;;;;5053404;28;20489;-62
2021/11/11 01:48:15;;;;;;;39.43;19.03;;;2.30;99.90;;;;;;5054023;28;20470;-62
2021/11/11 01:50:43;;;;;;;33.70;17.63;;;2.40;1.00;;;;;;5053734;28;20452;-60
2021/11/11 01:53:12;;;;;;;30.70;17.67;;;2.40;1.00;;;;;;5053366;28;20475;-62
2021/11/11 01:55:39;;;;;;;32.27;17.97;;;2.50;1.00;;;;;;5052891;28;20459;-62
2021/11/11 01:58:07;;;;;;;28.03;17.30;;;2.50;1.00;;;;;;5053463;28;20537;-61
2021/11/11 02:00:39;;;;;;;35.33;19.30;;;2.60;1.00;;;;;;5053230;28;20451;-62
2021/11/11 02:03:08;;;;;;;37.80;18.47;;;2.60;1.00;;;;;;5053334;28;20475;-62
2021/11/11 02:05:36;;;;;;;34.27;17.67;;;2.70;1.00;;;;;;5052759;28;20448;-62
2021/11/11 02:08:04;;;;;;;32.10;18.20;;;2.70;1.00;;;;;;5053158;28;20505;-62
2021/11/11 02:10:33;;;;;;;30.33;17.20;;;2.70;1.00;;;;;;5052998;28;20505;-62
2021/11/11 02:13:00;;;;;;;31.97;18.17;;;2.70;1.00;;;;;;5053080;28;20476;-62
2021/11/11 02:15:26;;;;;;;33.67;18.10;;;2.80;1.00;;;;;;5052623;28;21021;-62
2021/11/11 02:17:54;;;;;;;30.43;17.90;;;2.80;1.00;;;;;;5053534;28;20510;-61
2021/11/11 02:20:25;;;;;;;31.07;17.40;;;2.80;1.00;;;;;;5053333;28;20518;-62
2021/11/11 02:22:53;;;;;;;28.03;17.17;;;2.70;1.00;;;;;;5053440;28;20529;-62
2021/11/11 02:25:22;;;;;;;33.37;17.37;;;2.70;1.00;;;;;;5052766;28;20448;-62
2021/11/11 02:27:51;;;;;;;33.40;16.57;;;2.60;1.00;;;;;;5052862;28;20502;-62
2021/11/11 02:30:19;;;;;;;30.80;17.30;;;2.60;1.00;;;;;;5052939;28;20452;-62
2021/11/11 02:32:46;;;;;;;30.53;17.20;;;2.60;1.00;;;;;;5052704;28;20970;-63
2021/11/11 02:35:17;;;;;;;28.47;16.27;;;2.60;1.00;;;;;;5052244;28;20477;-62
2021/11/11 02:37:45;;;;;;;26.43;15.57;;;2.60;99.90;;;;;;5052319;28;20455;-62
2021/11/11 02:40:18;;;;;;;27.80;16.13;;;2.60;99.90;;;;;;5052606;28;20505;-62
2021/11/11 02:42:46;;;;;;;29.40;15.83;;;2.50;99.90;;;;;;5052583;28;20456;-62
2021/11/11 02:45:17;;;;;;;26.77;16.20;;;2.50;99.90;;;;;;5052010;28;20470;-62
2021/11/11 02:47:45;;;;;;;27.60;16.83;;;2.40;99.90;;;;;;5052477;28;20452;-62
2021/11/11 02:50:13;;;;;;;29.40;16.53;;;2.40;99.90;;;;;;5052535;28;20447;-61
2021/11/11 02:52:40;;;;;;;26.83;17.20;;;2.40;99.90;;;;;;5052413;28;20452;-62
2021/11/11 02:55:09;;;;;;;33.63;18.37;;;2.50;99.90;;;;;;5051972;28;20455;-62
2021/11/11 02:57:38;;;;;;;30.67;18.67;;;2.50;99.90;;;;;;5052511;28;20452;-62
2021/11/11 03:00:09;;;;;;;32.40;17.00;;;2.50;99.90;;;;;;5052124;28;20533;-62
2021/11/11 03:02:38;;;;;;;34.07;18.30;;;2.50;99.90;;;;;;5052245;28;20475;-62
2021/11/11 03:05:06;;;;;;;29.73;18.20;;;2.50;99.90;;;;;;5052010;28;20482;-62
2021/11/11 03:07:33;;;;;;;37.53;19.37;;;2.40;1.00;;;;;;5052150;28;20527;-62
2021/11/11 03:10:00;;;;;;;33.47;20.87;;;2.40;1.00;;;;;;5052176;28;20863;-62
2021/11/11 03:12:28;;;;;;;35.30;20.23;;;2.40;1.00;;;;;;5051879;28;20514;-62
2021/11/11 03:14:55;;;;;;;36.60;20.57;;;2.50;1.00;;;;;;5051422;28;20533;-62
2021/11/11 03:17:22;;;;;;;34.87;20.17;;;2.50;1.00;;;;;;5052151;28;20448;-62
2021/11/11 03:19:49;;;;;;;39.23;20.43;;;2.50;1.00;;;;;;5051978;28;20480;-62
2021/11/11 03:22:19;;;;;;;33.40;20.07;;;2.50;1.00;;;;;;5052108;28;20448;-62
2021/11/11 03:24:46;;;;;;;31.03;17.67;;;2.50;1.00;;;;;;5051547;28;20918;-62
2021/11/11 03:27:13;;;;;;;33.70;19.40;;;2.50;1.00;;;;;;5051756;28;20452;-62
2021/11/11 03:29:41;;;;;;;31.00;16.77;;;2.50;1.00;;;;;;5051974;28;20818;-62
2021/11/11 03:32:08;;;;;;;26.93;16.97;;;2.50;1.00;;;;;;5052018;28;20502;-62
2021/11/11 03:34:36;;;;;;;35.13;18.13;;;2.50;1.00;;;;;;5051486;28;20471;-62
2021/11/11 03:37:03;;;;;;;30.43;16.80;;;2.50;1.00;;;;;;5055292;28;20824;-62
2021/11/11 03:39:30;;;;;;;29.37;17.70;;;2.50;1.00;;;;;;5055924;28;20529;-62
2021/11/11 03:41:57;;;;;;;31.70;17.23;;;2.40;1.00;;;;;;5055615;28;20447;-62
2021/11/11 03:44:24;;;;;;;29.33;18.30;;;2.40;1.00;;;;;;5055978;28;20476;-62
2021/11/11 03:46:55;;;;;;;30.60;18.40;;;2.40;1.00;;;;;;5055531;28;20451;-62
2021/11/11 03:49:23;;;;;;;29.87;17.97;;;2.40;1.00;;;;;;5055965;28;20440;-62
2021/11/11 03:51:50;;;;;;;30.27;17.60;;;2.40;1.00;;;;;;5055620;28;20509;-62
2021/11/11 03:54:19;;;;;;;31.47;19.03;;;2.30;1.00;;;;;;5055560;28;20464;-62
2021/11/11 03:56:48;;;;;;;31.57;18.40;;;2.30;1.00;;;;;;5055408;28;20459;-62
2021/11/11 03:59:16;;;;;;;33.20;19.77;;;2.40;99.90;;;;;;5055706;28;20541;-62
2021/11/11 04:01:44;;;;;;;29.43;18.07;;;2.40;99.90;;;;;;5055672;28;20928;-62
2021/11/11 04:04:12;;;;;;;33.10;19.70;;;2.40;99.90;;;;;;5055245;28;20518;-62
2021/11/11 04:06:39;;;;;;;38.30;19.47;;;2.40;99.90;;;;;;5055102;28;20455;-62
2021/11/11 04:09:06;;;;;;;29.90;18.10;;;2.30;99.90;;;;;;5055435;28;20447;-62
2021/11/11 04:11:34;;;;;;;30.97;18.17;;;2.30;99.90;;;;;;5055506;28;20455;-62
2021/11/11 04:14:01;;;;;;;31.03;20.00;;;2.20;99.90;;;;;;5054990;28;21051;-62
2021/11/11 04:16:28;;;;;;;35.07;19.93;;;2.20;99.90;;;;;;5055119;28;20493;-61
2021/11/11 04:18:55;;;;;;;32.60;20.60;;;2.20;99.90;;;;;;5055047;28;20488;-62
2021/11/11 04:21:23;;;;;;;34.03;19.37;;;2.20;99.90;;;;;;5055165;28;20471;-62
2021/11/11 04:23:52;;;;;;;36.10;19.37;;;2.20;99.90;;;;;;5054961;28;20479;-62
2021/11/11 04:26:21;;;;;;;36.37;20.17;;;2.20;99.90;;;;;;5054663;28;20497;-62
2021/11/11 04:28:53;;;;;;;34.33;20.43;;;2.20;99.90;;;;;;5055588;28;20452;-61
2021/11/11 04:31:25;;;;;;;35.37;21.10;;;2.30;99.90;;;;;;5054898;28;20548;-62
2021/11/11 04:33:55;;;;;;;35.33;20.90;;;2.30;99.90;;;;;;5054984;28;20567;-62
2021/11/11 04:36:45;;;;;;;34.40;20.50;;;2.30;99.90;;;;;;5054315;28;20456;-62
2021/11/11 04:39:31;;;;;;;33.90;19.53;;;2.30;99.90;;;;;;5054872;28;20476;-62
2021/11/11 04:42:10;;;;;;;31.80;19.20;;;2.30;99.90;;;;;;5054682;28;20462;-62
2021/11/11 04:44:47;;;;;;;35.20;20.07;;;2.30;99.90;;;;;;5054231;28;20530;-62
2021/11/11 04:47:27;;;;;;;34.63;20.53;;;2.30;99.90;;;;;;5054775;28;20483;-62
2021/11/11 04:53:05;;;;;;;74.50;40.03;;;2.10;99.90;;;;;;5012193;28;20479;-62
2021/11/11 05:01:20;;;;;;;34.87;19.73;;;2.20;99.90;;;;;;5054264;28;20431;-62
2021/11/11 05:03:47;;;;;;;32.20;18.80;;;2.20;99.90;;;;;;5054446;28;20468;-62
2021/11/11 05:06:16;;;;;;;30.87;19.33;;;2.20;99.90;;;;;;5054123;28;20452;-62
2021/11/11 05:08:42;;;;;;;30.73;18.47;;;2.20;99.90;;;;;;5054318;28;20887;-62
2021/11/11 05:11:11;;;;;;;31.60;18.03;;;2.10;99.90;;;;;;5054285;28;20452;-62
2021/11/11 05:13:38;;;;;;;33.53;19.23;;;2.10;99.90;;;;;;5053934;28;20474;-62
2021/11/11 05:16:06;;;;;;;29.43;18.17;;;2.10;99.90;;;;;;5053623;28;21014;-62
2021/11/11 05:18:32;;;;;;;30.37;18.73;;;2.10;99.90;;;;;;5054206;28;20851;-62
2021/11/11 05:20:59;;;;;;;31.53;18.37;;;2.10;99.90;;;;;;5050721;28;20953;-62
2021/11/11 05:23:26;;;;;;;32.80;17.67;;;2.10;99.90;;;;;;5053634;28;20505;-62
2021/11/11 05:25:53;;;;;;;31.27;18.47;;;2.10;99.90;;;;;;5053390;28;20514;-62
2021/11/11 05:28:21;;;;;;;33.50;17.33;;;2.10;99.90;;;;;;5053449;28;20523;-62
2021/11/11 05:30:48;;;;;;;32.47;17.77;;;2.10;99.90;;;;;;5050762;28;20444;-61
2021/11/11 05:33:15;;;;;;;32.33;18.03;;;2.10;99.90;;;;;;5052803;28;20482;-62
2021/11/11 05:35:42;;;;;;;35.37;18.30;;;2.10;99.90;;;;;;5053227;28;20466;-61
2021/11/11 05:38:09;;;;;;;31.27;17.57;;;2.10;99.90;;;;;;5053351;28;20501;-62
2021/11/11 05:40:35;;;;;;;26.43;15.97;;;2.00;99.90;;;;;;5053253;28;20992;-61
2021/11/11 05:43:02;;;;;;;28.97;17.07;;;2.00;99.90;;;;;;5053513;28;20471;-61
2021/11/11 05:45:30;;;;;;;29.47;17.23;;;2.00;99.90;;;;;;5048944;28;20937;-60
2021/11/11 05:47:57;;;;;;;29.63;17.20;;;1.90;99.90;;;;;;5045595;28;20455;-60
2021/11/11 05:50:24;;;;;;;28.83;17.13;;;1.90;99.90;;;;;;5052829;28;20522;-59
2021/11/11 05:52:51;;;;;;;34.67;18.90;;;1.90;99.90;;;;;;5052875;28;20459;-60
2021/11/11 05:55:18;;;;;;;29.57;18.17;;;1.90;99.90;;;;;;5052111;28;20451;-59
2021/11/11 05:57:45;;;;;;;30.13;19.10;;;1.80;99.90;;;;;;5052517;28;20452;-60
2021/11/11 06:00:14;;;;;;;34.80;19.30;;;1.80;99.90;;;;;;5052544;28;20476;-59
2021/11/11 06:02:43;;;;;;;34.70;19.07;;;1.70;99.90;;;;;;5052660;28;20447;-59
2021/11/11 06:05:10;;;;;;;33.93;19.13;;;1.70;99.90;;;;;;5052558;28;20540;-59
2021/11/11 06:07:37;;;;;;;38.23;21.80;;;1.60;99.90;;;;;;5052141;28;20459;-60
2021/11/11 06:10:06;;;;;;;36.30;19.87;;;1.60;99.90;;;;;;5052429;28;20469;-59
2021/11/11 06:12:32;;;;;;;38.40;19.87;;;1.70;99.90;;;;;;5052430;28;20534;-59
2021/11/11 06:15:00;;;;;;;37.07;20.57;;;1.70;99.90;;;;;;5052005;28;20460;-59
2021/11/11 06:17:26;;;;;;;36.87;19.37;;;1.70;99.90;;;;;;5052232;28;20984;-58
2021/11/11 06:19:55;;;;;;;38.00;21.07;;;1.80;99.90;;;;;;5052165;28;21002;-61
2021/11/11 06:22:22;;;;;;;40.77;21.83;;;1.80;99.90;;;;;;5052093;28;20928;-60
2021/11/11 06:24:49;;;;;;;34.53;21.30;;;1.80;99.90;;;;;;5051674;28;20470;-58
2021/11/11 06:27:17;;;;;;;39.40;22.23;;;1.90;99.90;;;;;;5051980;28;20462;-59
2021/11/11 06:29:44;;;;;;;37.90;21.03;;;1.90;99.90;;;;;;5052368;28;20448;-59
2021/11/11 06:32:11;;;;;;;34.93;20.47;;;1.90;99.90;;;;;;5050717;28;20877;-64
2021/11/11 06:34:37;;;;;;;37.20;20.80;;;1.90;99.90;;;;;;5136205;22;20531;-58
2021/11/11 06:37:06;;;;;;;39.87;20.23;;;1.80;99.90;;;;;;5031666;28;20452;-63
2021/11/11 06:39:33;;;;;;;33.27;20.77;;;1.80;99.90;;;;;;5031208;28;21069;-61
2021/11/11 06:41:59;;;;;;;38.63;21.63;;;1.80;99.90;;;;;;5031863;28;20456;-60
2021/11/11 06:44:26;;;;;;;39.23;22.17;;;1.80;99.90;;;;;;5032017;28;20477;-59
2021/11/11 06:46:53;;;;;;;40.43;22.50;;;1.80;1.00;;;;;;5031311;28;20449;-60
2021/11/11 06:49:20;;;;;;;38.60;21.10;;;1.80;99.90;;;;;;5031693;28;20459;-60
2021/11/11 06:51:47;;;;;;;43.83;22.40;;;1.80;99.90;;;;;;5031998;28;20482;-59
2021/11/11 06:54:15;;;;;;;42.47;23.27;;;1.80;99.90;;;;;;5031834;28;20519;-59
2021/11/11 06:56:42;;;;;;;41.80;22.80;;;1.80;99.90;;;;;;5031168;28;20456;-58
2021/11/11 06:59:08;;;;;;;46.70;24.23;;;1.80;1.00;;;;;;5031934;28;20449;-62
2021/11/11 07:01:35;;;;;;;47.40;25.10;;;1.80;1.00;;;;;;5031456;28;20453;-60
2021/11/11 07:04:02;;;;;;;50.30;25.90;;;1.90;1.00;;;;;;5031411;28;20496;-61
2021/11/11 07:06:28;;;;;;;51.60;25.53;;;1.90;1.00;;;;;;5031281;28;20449;-60
2021/11/11 07:08:55;;;;;;;51.63;27.27;;;2.00;1.00;;;;;;5031569;28;20456;-61
2021/11/11 07:11:23;;;;;;;48.30;27.20;;;2.10;1.00;;;;;;5030857;28;20459;-60
2021/11/11 07:13:50;;;;;;;48.77;25.77;;;2.20;1.00;;;;;;5031341;28;20473;-61
2021/11/11 07:16:17;;;;;;;42.97;25.07;;;2.20;1.00;;;;;;5030973;28;20514;-61
2021/11/11 07:18:44;;;;;;;49.43;26.53;;;2.20;1.00;;;;;;5031269;28;20811;-61
2021/11/11 07:21:11;;;;;;;51.87;25.80;;;2.30;1.00;;;;;;5031332;28;21067;-61
2021/11/11 07:23:37;;;;;;;51.97;25.73;;;2.30;1.00;;;;;;5031450;28;20465;-59
2021/11/11 07:26:05;;;;;;;48.97;24.43;;;2.40;1.00;;;;;;5031344;28;20460;-63
2021/11/11 07:28:33;;;;;;;43.10;24.90;;;2.40;1.00;;;;;;5031492;28;20445;-63
2021/11/11 07:31:00;;;;;;;46.70;24.87;;;2.50;1.00;;;;;;5031257;28;20472;-63
2021/11/11 07:33:26;;;;;;;42.77;23.77;;;2.50;1.00;;;;;;5030963;28;20480;-62
2021/11/11 07:35:53;;;;;;;45.33;26.60;;;2.60;1.00;;;;;;5030960;28;20453;-63
2021/11/11 07:38:21;;;;;;;44.57;24.50;;;2.60;1.00;;;;;;5030924;28;20491;-57
2021/11/11 07:40:47;;;;;;;42.60;24.40;;;2.60;1.00;;;;;;5031203;28;20579;-60
2021/11/11 07:43:14;;;;;;;44.27;24.10;;;2.60;1.00;;;;;;5027711;28;20469;-57
2021/11/11 07:45:43;;;;;;;43.03;24.43;;;2.70;1.00;;;;;;5030584;28;20453;-61
2021/11/11 07:48:10;;;;;;;48.93;25.17;;;2.70;1.00;;;;;;5030794;28;20987;-60
2021/11/11 07:50:40;;;;;;;48.70;26.83;;;2.70;1.00;;;;;;5031189;28;20451;-60
2021/11/11 07:53:09;;;;;;;50.40;26.07;;;2.70;1.00;;;;;;5030760;28;20468;-61
2021/11/11 07:55:38;;;;;;;55.20;28.40;;;2.60;1.00;;;;;;5030605;28;20452;-61
2021/11/11 07:58:05;;;;;;;55.77;28.50;;;2.70;1.00;;;;;;5030890;28;20456;-60
2021/11/11 08:00:32;;;;;;;56.80;29.03;;;2.70;22.10;;;;;;5031009;28;20546;-60
2021/11/11 08:03:00;;;;;;;55.97;30.30;;;2.80;67.00;;;;;;5031255;28;20841;-58
2021/11/11 08:05:27;;;;;;;66.87;32.50;;;2.90;99.90;;;;;;5030602;28;20824;-59
2021/11/11 08:07:54;;;;;;;69.00;33.40;;;3.00;99.90;;;;;;5030814;28;20457;-57
2021/11/11 08:10:22;;;;;;;63.90;32.40;;;3.10;99.90;;;;;;5030912;28;20794;-60
2021/11/11 08:12:49;;;;;;;65.30;32.90;;;3.20;99.90;;;;;;5030771;28;20453;-58
2021/11/11 08:15:17;;;;;;;66.57;34.67;;;3.40;99.90;;;;;;5030450;28;20449;-59
2021/11/11 08:17:44;;;;;;;62.20;33.13;;;3.50;99.90;;;;;;5030678;28;20456;-54
2021/11/11 08:20:14;;;;;;;64.60;32.90;;;3.60;99.90;;;;;;5030755;28;20699;-61
2021/11/11 08:22:41;;;;;;;63.97;32.17;;;3.70;99.90;;;;;;5033469;28;20452;-61
2021/11/11 08:25:10;;;;;;;65.10;33.60;;;3.80;99.90;;;;;;5034537;28;20207;-59
2021/11/11 08:27:38;;;;;;;63.47;33.00;;;3.90;99.90;;;;;;5034437;28;20214;-59
2021/11/11 08:30:06;;;;;;;61.33;32.20;;;4.00;99.90;;;;;;5034619;28;20667;-61
2021/11/11 08:32:34;;;;;;;58.43;31.83;;;4.10;99.90;;;;;;5034375;28;20453;-58
2021/11/11 08:35:00;;;;;;;57.47;32.47;;;4.20;99.90;;;;;;5034100;28;20242;-58
2021/11/11 08:37:28;;;;;;;56.17;32.70;;;4.20;99.90;;;;;;5034225;28;20270;-63
2021/11/11 08:39:55;;;;;;;61.57;31.13;;;4.40;99.90;;;;;;5034000;28;20255;-63
2021/11/11 08:42:22;;;;;;;57.43;32.20;;;4.40;99.90;;;;;;5034360;28;20208;-64
2021/11/11 08:44:49;;;;;;;54.37;30.63;;;4.50;99.90;;;;;;5033809;28;20232;-62
2021/11/11 08:47:17;;;;;;;59.30;31.83;;;4.60;99.90;;;;;;5033950;28;20213;-66
2021/11/11 08:49:46;;;;;;;64.00;33.43;;;5.00;99.90;;;;;;5034299;28;20210;-66
2021/11/11 08:52:15;;;;;;;59.77;29.77;;;5.40;1.00;;;;;;5034212;28;20295;-66
2021/11/11 08:54:43;;;;;;;43.07;27.87;;;5.70;99.90;;;;;;5033579;28;20231;-64
2021/11/11 08:57:11;;;;;;;42.33;26.03;;;6.00;1.00;;;;;;5032576;28;20206;-66
2021/11/11 08:59:39;;;;;;;37.73;21.50;;;6.00;99.90;;;;;;5033845;28;20609;-63
2021/11/11 09:02:06;;;;;;;36.27;21.67;;;6.10;99.90;;;;;;5033779;28;20624;-62
2021/11/11 09:04:32;;;;;;;34.13;22.57;;;6.20;99.90;;;;;;5033433;28;20222;-59
2021/11/11 09:07:00;;;;;;;34.57;21.20;;;6.10;45.80;;;;;;5033030;28;20214;-59
2021/11/11 09:09:27;;;;;;;33.57;21.43;;;6.10;22.00;;;;;;5034045;28;20238;-60
2021/11/11 09:11:56;;;;;;;36.50;22.40;;;6.20;6.20;;;;;;5033811;28;20305;-61
2021/11/11 09:14:22;;;;;;;34.83;22.93;;;6.20;2.30;;;;;;5033563;28;20233;-60
2021/11/11 09:16:49;;;;;;;35.77;22.40;;;6.20;2.20;;;;;;5032936;28;20206;-58
2021/11/11 09:19:16;;;;;;;33.93;20.77;;;6.30;1.00;;;;;;5033282;28;20218;-61
2021/11/11 09:21:43;;;;;;;32.57;20.17;;;6.40;1.00;;;;;;5033268;28;20237;-63
2021/11/11 09:24:10;;;;;;;33.17;20.83;;;6.50;1.00;;;;;;5033379;28;20320;-61
2021/11/11 09:26:38;;;;;;;33.23;20.57;;;6.50;1.00;;;;;;5032756;28;20225;-60
2021/11/11 09:29:06;;;;;;;38.30;22.67;;;6.50;1.00;;;;;;5033338;28;20214;-62
2021/11/11 09:31:33;;;;;;;32.17;20.40;;;6.60;1.00;;;;;;5033057;28;20678;-61
2021/11/11 09:34:00;;;;;;;34.40;21.03;;;6.60;1.00;;;;;;5031931;28;20235;-60
2021/11/11 09:36:27;;;;;;;32.73;19.77;;;6.70;1.00;;;;;;5032782;28;20210;-60
2021/11/11 09:38:53;;;;;;;31.57;20.03;;;6.80;1.00;;;;;;5033520;28;20210;-59
2021/11/11 09:41:21;;;;;;;33.17;20.27;;;6.80;1.00;;;;;;5033391;28;20233;-60
2021/11/11 09:43:48;;;;;;;33.73;19.20;;;6.80;1.00;;;;;;5033324;28;20387;-60
2021/11/11 09:46:19;;;;;;;29.30;18.07;;;6.90;1.00;;;;;;5032463;28;20202;-58
2021/11/11 09:48:47;;;;;;;31.93;18.57;;;7.00;1.00;;;;;;5032856;28;20210;-58
2021/11/11 09:51:17;;;;;;;33.93;19.17;;;7.10;1.00;;;;;;5033182;28;20210;-59
2021/11/11 09:53:53;;;;;;;31.13;18.53;;;7.20;1.00;;;;;;5032997;28;20223;-58
2021/11/11 09:59:04;;;;;;;29.90;18.80;;;7.40;1.00;;;;;;5032819;28;20201;-61
2021/11/11 10:01:32;;;;;;;27.80;19.20;;;7.50;1.00;;;;;;5032804;28;20226;-62
2021/11/11 10:03:59;;;;;;;32.80;20.17;;;7.60;1.00;;;;;;5032977;28;20235;-60
2021/11/11 10:06:28;;;;;;;33.87;20.47;;;7.70;1.00;;;;;;5031997;28;20206;-59
2021/11/11 10:08:56;;;;;;;29.70;20.37;;;7.70;1.00;;;;;;5032891;28;20214;-60
2021/11/11 10:11:32;;;;;;;30.57;19.57;;;7.70;1.00;;;;;;5032442;28;20241;-60
2021/11/11 10:14:01;;;;;;;32.10;19.73;;;7.80;1.00;;;;;;5032995;28;20222;-59
2021/11/11 10:16:28;;;;;;;33.03;20.47;;;7.80;1.00;;;;;;5031996;28;20206;-59
2021/11/11 10:18:58;;;;;;;38.70;20.83;;;7.90;1.00;;;;;;5032838;28;20253;-59
2021/11/11 10:21:33;;;;;;;35.47;21.53;;;7.80;1.00;;;;;;5032235;28;20595;-58
2021/11/11 10:24:21;;;;;;;31.93;20.97;;;7.90;1.00;;;;;;5032150;28;20254;-58
2021/11/11 10:27:00;;;;;;;33.70;20.77;;;7.90;1.00;;;;;;5032144;28;20560;-62
2021/11/11 10:29:31;;;;;;;30.93;19.33;;;8.00;1.00;;;;;;5032548;28;20237;-62
2021/11/11 10:32:06;;;;;;;39.03;20.23;;;8.10;1.00;;;;;;5032557;28;20682;-61
2021/11/11 10:34:35;;;;;;;31.43;20.10;;;8.20;1.00;;;;;;5031428;28;20233;-59
2021/11/11 10:37:02;;;;;;;37.93;21.10;;;8.20;1.00;;;;;;5032232;28;20210;-60
2021/11/11 10:39:32;;;;;;;30.87;20.27;;;8.20;1.00;;;;;;5031830;28;20212;-59
2021/11/11 10:42:12;;;;;;;34.07;20.63;;;8.30;1.00;;;;;;5032225;28;20230;-61
2021/11/11 10:44:39;;;;;;;34.00;20.70;;;8.30;1.00;;;;;;5031713;28;20232;-60
2021/11/11 10:47:08;;;;;;;33.93;21.30;;;8.40;1.00;;;;;;5031470;28;20218;-62
2021/11/11 10:49:41;;;;;;;33.97;20.03;;;8.50;1.00;;;;;;5031723;28;20211;-61
2021/11/11 10:52:35;;;;;;;34.67;20.00;;;8.60;1.00;;;;;;5031835;28;20265;-61
2021/11/11 10:55:22;;;;;;;33.17;19.63;;;8.60;1.00;;;;;;5031445;28;20219;-59
2021/11/11 10:57:52;;;;;;;30.90;19.17;;;8.70;1.00;;;;;;5031679;28;20299;-61
2021/11/11 11:00:36;;;;;;;33.23;20.43;;;8.80;1.00;;;;;;5031575;28;20740;-61
2021/11/11 11:03:07;;;;;;;30.43;19.47;;;9.00;1.00;;;;;;5031064;28;20236;-54
2021/11/11 11:05:38;;;;;;;32.63;19.50;;;9.00;1.00;;;;;;5031028;28;20217;-52
2021/11/11 11:08:09;;;;;;;31.60;18.63;;;9.10;1.00;;;;;;5031652;28;20600;-60
2021/11/11 11:10:38;;;;;;;33.03;19.53;;;9.10;1.00;;;;;;5031402;28;20698;-62
2021/11/11 11:13:11;;;;;;;32.63;19.50;;;9.20;1.00;;;;;;5031484;28;20240;-63
2021/11/11 11:15:54;;;;;;;29.90;18.87;;;9.20;1.00;;;;;;5031242;28;20268;-62
2021/11/11 11:18:23;;;;;;;32.33;19.27;;;9.30;1.00;;;;;;5029248;28;20214;-63
2021/11/11 11:20:57;;;;;;;29.33;18.60;;;9.40;1.00;;;;;;5031278;28;20610;-62
2021/11/11 11:23:31;;;;;;;33.03;19.17;;;9.40;1.00;;;;;;5031562;28;20318;-63
2021/11/11 11:26:15;;;;;;;32.67;18.70;;;9.50;1.00;;;;;;5030839;28;20719;-62
2021/11/11 11:28:49;;;;;;;30.40;19.20;;;9.50;1.00;;;;;;5029351;28;20223;-60
2021/11/11 11:31:25;;;;;;;35.13;18.97;;;9.50;1.00;;;;;;5031521;28;20209;-60
2021/11/11 11:33:52;;;;;;;31.27;19.30;;;9.50;1.00;;;;;;5031363;28;20267;-60
2021/11/11 11:36:34;;;;;;;27.97;19.83;;;9.50;1.00;;;;;;5030899;28;20213;-60
2021/11/11 11:39:01;;;;;;;31.57;20.17;;;9.50;1.00;;;;;;5031165;28;20256;-60
2021/11/11 11:41:30;;;;;;;33.90;21.43;;;9.50;1.00;;;;;;5031339;28;20233;-61
2021/11/11 11:44:19;;;;;;;34.40;20.60;;;9.40;1.00;;;;;;5031252;28;20225;-60
2021/11/11 11:46:54;;;;;;;35.33;20.60;;;9.50;1.00;;;;;;5030583;28;20666;-60
2021/11/11 11:49:22;;;;;;;29.50;17.90;;;9.70;1.00;;;;;;5030931;28;20681;-60
2021/11/11 11:51:51;;;;;;;30.47;18.27;;;9.90;1.00;;;;;;5031230;28;20206;-60
2021/11/11 11:54:24;;;;;;;32.40;18.97;;;10.00;1.00;;;;;;5031245;28;20224;-60
2021/11/11 11:56:55;;;;;;;35.57;19.40;;;10.10;1.00;;;;;;5031874;28;20580;-61
2021/11/11 11:59:26;;;;;;;33.63;19.50;;;10.00;1.00;;;;;;5034975;28;20671;-62
2021/11/11 12:02:11;;;;;;;33.10;20.20;;;10.10;1.00;;;;;;5034480;28;20264;-63
2021/11/11 12:07:36;;;;;;;37.23;20.20;;;10.10;1.00;;;;;;5034520;28;20217;-61
2021/11/11 12:10:16;;;;;;;33.83;20.47;;;10.10;1.00;;;;;;5035054;28;20206;-61
2021/11/11 12:34:14;;;;;;;31.90;19.87;;;10.20;1.00;;;;;;5088767;28;20733;-58
2021/11/11 12:38:40;;;;;;;29.43;18.00;;;10.40;1.00;;;;;;5088393;28;20241;-61
2021/11/11 12:41:10;;;;;;;30.57;17.97;;;10.30;1.00;;;;;;5088521;28;20664;-62
2021/11/11 12:43:37;;;;;;;33.03;19.27;;;9.90;1.00;;;;;;5088244;28;20234;-60
2021/11/11 12:46:05;;;;;;;26.23;16.57;;;10.00;1.00;;;;;;5087670;28;20299;-58
2021/11/11 12:48:33;;;;;;;27.27;15.00;;;10.00;1.00;;;;;;5088257;28;20204;-59
2021/11/11 12:51:05;;;;;;;38.43;23.77;;;10.00;1.00;;;;;;5088465;28;20258;-58
2021/11/11 12:53:45;;;;;;;30.80;15.13;;;10.10;1.00;;;;;;5087887;28;20225;-60
2021/11/11 12:56:17;;;;;;;17.20;11.77;;;10.10;1.00;;;;;;5087483;28;20212;-55
2021/11/11 12:58:48;;;;;;;21.00;12.77;;;10.10;1.00;;;;;;5088182;28;20211;-58
2021/11/11 13:01:17;;;;;;;24.00;14.60;;;10.20;1.00;;;;;;5088096;28;20200;-64
2021/11/11 13:03:49;;;;;;;31.80;17.00;;;10.30;1.00;;;;;;5088094;28;20231;-62
2021/11/11 13:06:37;;;;;;;31.67;15.80;;;10.10;1.00;;;;;;5087345;28;20200;-64
2021/11/11 13:09:08;;;;;;;27.60;16.13;;;10.10;1.00;;;;;;5088235;28;20212;-60
2021/11/11 13:11:37;;;;;;;24.07;14.80;;;10.30;1.00;;;;;;5088165;28;20213;-61
2021/11/11 13:14:07;;;;;;;26.27;16.13;;;10.30;1.00;;;;;;5087426;28;20240;-61
2021/11/11 13:16:34;;;;;;;24.83;15.37;;;10.30;1.00;;;;;;5087362;28;20209;-61
2021/11/11 13:19:04;;;;;;;26.47;16.13;;;10.40;1.00;;;;;;5087546;28;20204;-62
2021/11/11 13:21:39;;;;;;;27.70;16.70;;;10.40;1.00;;;;;;5088363;28;20683;-62
2021/11/11 13:24:23;;;;;;;27.77;16.13;;;10.50;1.00;;;;;;5087708;28;20250;-61
2021/11/11 14:01:09;;;;;;;33.77;20.30;;;10.10;1.00;;;;;;5054080;28;20671;-63